Time;durP1;ratioP1;P1;durP2;ratioP2;P2;SDS_P1;SDS_P2;PMS_P1;PMS_P2;Temp;Humidity;BMP_temperature;BMP_pressure;BME280_temperature;BME280_humidity;BME280_pressure;Samples;Min_cycle;Max_cycle;Signal;HPM_P1;HPM_P2
2022/01/23 00:00:31;;;;;;;7.60;6.75;;;22.70;44.70;;;;;;5034625;28;20190;-68
2022/01/23 00:03:00;;;;;;;7.80;7.00;;;22.70;44.70;;;;;;5015962;28;20218;-68
2022/01/23 00:05:33;;;;;;;8.02;7.05;;;22.70;44.70;;;;;;4999709;28;20187;-68
2022/01/23 00:08:00;;;;;;;7.88;7.07;;;22.70;44.70;;;;;;5016332;28;20190;-68
2022/01/23 00:10:26;;;;;;;7.53;6.82;;;22.70;44.70;;;;;;5016147;28;20219;-69
2022/01/23 00:13:05;;;;;;;8.20;7.22;;;22.70;44.70;;;;;;4999479;28;20207;-68
2022/01/23 00:18:15;;;;;;;7.63;6.82;;;22.70;45.40;;;;;;5033644;28;20190;-69
2022/01/23 00:20:41;;;;;;;6.07;5.47;;;22.70;44.80;;;;;;4999650;28;20191;-69
2022/01/23 00:23:15;;;;;;;7.43;6.53;;;22.70;44.80;;;;;;5032307;28;20207;-69
2022/01/23 00:31:17;;;;;;;7.68;6.88;;;22.70;44.70;;;;;;5012544;28;20215;-68
2022/01/23 00:33:43;;;;;;;7.47;6.78;;;22.70;44.80;;;;;;4995907;28;20734;-69
2022/01/23 00:36:08;;;;;;;7.18;6.53;;;22.70;44.70;;;;;;4979864;28;20195;-68
2022/01/23 00:38:34;;;;;;;6.78;6.13;;;22.70;44.70;;;;;;4979850;28;20188;-69
2022/01/23 00:41:00;;;;;;;7.30;6.57;;;22.70;44.70;;;;;;4980179;28;20192;-68
2022/01/23 00:43:28;;;;;;;6.68;5.97;;;22.70;44.70;;;;;;5012600;28;20314;-68
2022/01/23 00:51:32;;;;;;;6.10;5.50;;;22.70;44.70;;;;;;5001061;28;20200;-68
2022/01/23 00:54:01;;;;;;;6.70;6.00;;;22.70;44.70;;;;;;5011956;28;20246;-69
2022/01/23 00:56:27;;;;;;;6.53;5.93;;;22.70;44.70;;;;;;5011796;28;20191;-69
2022/01/23 00:58:53;;;;;;;6.32;5.72;;;22.70;44.70;;;;;;5011927;28;20218;-68
2022/01/23 01:01:20;;;;;;;6.18;5.57;;;22.70;44.70;;;;;;4995588;28;20199;-68
2022/01/23 01:03:47;;;;;;;6.13;5.53;;;22.70;44.70;;;;;;4995526;28;20222;-68
2022/01/23 01:06:15;;;;;;;6.15;5.65;;;22.70;44.70;;;;;;4980697;28;20192;-69
2022/01/23 01:08:42;;;;;;;6.25;5.60;;;22.70;44.70;;;;;;5009860;28;20184;-68
2022/01/23 01:35:23;;;;;;;5.88;5.28;;;22.60;44.60;;;;;;5011224;28;20291;-68
2022/01/23 01:37:50;;;;;;;5.88;5.35;;;22.70;44.70;;;;;;4995146;28;20270;-68
2022/01/23 01:40:16;;;;;;;6.22;5.50;;;22.70;44.70;;;;;;4994882;28;20180;-69
2022/01/23 01:42:44;;;;;;;4.97;4.53;;;22.70;44.70;;;;;;5011103;28;20237;-68
2022/01/23 01:45:12;;;;;;;5.47;4.97;;;22.70;44.70;;;;;;5010903;28;20188;-68
2022/01/23 01:48:07;;;;;;;5.28;4.78;;;22.70;44.60;;;;;;4990285;28;20233;-69
2022/01/23 01:50:34;;;;;;;5.82;5.20;;;22.70;44.60;;;;;;5041295;28;20202;-69
2022/01/23 01:53:04;;;;;;;5.13;4.63;;;22.70;44.60;;;;;;5033977;28;20194;-69
2022/01/23 01:55:39;;;;;;;4.90;4.43;;;22.70;44.60;;;;;;5050308;28;20193;-69
2022/01/23 01:58:06;;;;;;;5.63;5.10;;;22.60;44.50;;;;;;5034328;28;20174;-68
2022/01/23 02:02:43;;;;;;;4.50;4.10;;;22.70;44.60;;;;;;5034145;28;20205;-68
2022/01/23 02:09:43;;;;;;;5.30;4.65;;;22.70;44.60;;;;;;5050498;28;20210;-68
2022/01/23 02:23:20;;;;;;;4.90;4.50;;;22.70;44.60;;;;;;5050147;28;20198;-68
2022/01/23 02:51:03;;;;;;;4.10;3.70;;;22.70;44.60;;;;;;5032078;28;20215;-69
2022/01/23 02:56:21;;;;;;;4.00;3.63;;;22.70;44.60;;;;;;5034445;28;20242;-68
2022/01/23 02:59:00;;;;;;;4.25;3.85;;;22.70;44.60;;;;;;5034056;28;20183;-68
2022/01/23 03:01:30;;;;;;;4.10;3.70;;;22.70;44.60;;;;;;5017490;28;20179;-68
2022/01/23 03:04:09;;;;;;;3.67;3.35;;;22.70;44.60;;;;;;5035065;28;20241;-69
2022/01/23 03:07:13;;;;;;;3.63;3.33;;;22.70;44.60;;;;;;5034266;28;20198;-69
2022/01/23 03:09:58;;;;;;;4.45;4.03;;;22.60;44.50;;;;;;5017331;28;20714;-68
2022/01/23 03:13:39;;;;;;;3.97;3.67;;;22.70;44.60;;;;;;5016954;28;20665;-69
2022/01/23 03:31:24;;;;;;;3.55;3.25;;;22.70;44.50;;;;;;5034419;28;20311;-68
2022/01/23 03:33:51;;;;;;;3.95;3.50;;;22.70;44.60;;;;;;5033185;28;20202;-69
2022/01/23 03:36:17;;;;;;;3.72;3.42;;;22.70;44.50;;;;;;5033071;28;20207;-68
2022/01/23 03:38:44;;;;;;;3.55;3.25;;;22.70;44.50;;;;;;5016920;28;20219;-69
2022/01/23 03:41:10;;;;;;;3.33;3.03;;;22.60;44.40;;;;;;5035913;28;20662;-69
2022/01/23 03:43:40;;;;;;;3.53;3.22;;;22.70;44.50;;;;;;5033102;28;20203;-68
2022/01/23 03:51:21;;;;;;;3.40;3.10;;;22.60;44.50;;;;;;5032913;28;20246;-69
2022/01/23 03:53:49;;;;;;;3.33;3.03;;;22.60;44.40;;;;;;5000500;28;20693;-69
2022/01/23 03:56:17;;;;;;;3.22;2.92;;;22.70;44.60;;;;;;4999862;28;20270;-68
2022/01/23 03:58:43;;;;;;;3.33;3.03;;;22.70;44.60;;;;;;5032701;28;20184;-68
2022/01/23 04:01:16;;;;;;;3.42;3.13;;;22.60;44.40;;;;;;5000781;28;20210;-68
2022/01/23 04:03:42;;;;;;;3.60;3.30;;;22.60;44.40;;;;;;5031770;28;20207;-69
2022/01/23 04:06:09;;;;;;;4.22;3.47;;;22.70;44.50;;;;;;5016049;28;20183;-69
2022/01/23 04:08:36;;;;;;;3.40;3.13;;;22.60;44.40;;;;;;5000311;28;20198;-69
2022/01/23 04:11:03;;;;;;;3.65;3.35;;;22.70;44.50;;;;;;5032646;28;20215;-69
2022/01/23 04:13:40;;;;;;;3.58;3.28;;;22.70;44.50;;;;;;5015914;28;20564;-69
2022/01/23 04:32:08;;;;;;;3.17;2.97;;;22.70;44.50;;;;;;5032353;28;20183;-68
2022/01/23 04:45:31;;;;;;;2.83;2.53;;;22.60;44.50;;;;;;5031854;28;20192;-68
2022/01/23 05:04:37;;;;;;;3.60;3.30;;;22.60;44.40;;;;;;5073332;22;20265;-67
2022/01/23 05:07:26;;;;;;;4.22;3.85;;;22.60;44.40;;;;;;5053173;28;20316;-69
2022/01/23 05:10:04;;;;;;;2.90;2.70;;;22.60;44.40;;;;;;5020454;28;20691;-69
2022/01/23 05:12:44;;;;;;;2.83;2.63;;;22.60;44.40;;;;;;5020588;28;20185;-68
2022/01/23 05:15:11;;;;;;;2.92;2.63;;;22.60;44.50;;;;;;5018481;28;20190;-70
2022/01/23 05:17:37;;;;;;;2.92;2.70;;;22.60;44.40;;;;;;5018684;28;20564;-69
2022/01/23 05:20:06;;;;;;;2.60;2.40;;;22.60;44.40;;;;;;5035018;28;20187;-69
2022/01/23 05:25:36;;;;;;;3.40;3.10;;;22.60;44.40;;;;;;5034991;28;20187;-69
2022/01/23 05:27:54;;;;;;;3.63;3.33;;;22.60;44.40;;;;;;5030995;28;20281;-69
2022/01/23 05:30:21;;;;;;;3.90;3.60;;;22.60;44.40;;;;;;5018437;28;20218;-69
2022/01/23 05:32:47;;;;;;;3.45;3.15;;;22.60;44.40;;;;;;5018417;28;20210;-70
2022/01/23 05:35:20;;;;;;;3.90;3.60;;;22.60;44.40;;;;;;5034890;28;20186;-70
2022/01/23 05:37:48;;;;;;;3.53;3.22;;;22.60;44.40;;;;;;5034809;28;20181;-70
2022/01/23 05:40:19;;;;;;;4.10;3.70;;;22.60;44.40;;;;;;5034727;28;20221;-69
2022/01/23 05:42:47;;;;;;;3.40;3.10;;;22.60;44.40;;;;;;5034993;28;20558;-69
2022/01/23 05:45:14;;;;;;;2.63;2.42;;;22.60;44.40;;;;;;5034520;28;20189;-69
2022/01/23 05:47:58;;;;;;;2.90;2.70;;;22.60;44.40;;;;;;5037398;28;20244;-69
2022/01/23 05:50:42;;;;;;;3.00;2.70;;;22.70;44.50;;;;;;5034548;28;20210;-69
2022/01/23 05:53:27;;;;;;;3.22;2.95;;;22.70;44.40;;;;;;5037344;28;20217;-70
2022/01/23 05:56:12;;;;;;;3.40;3.10;;;22.60;44.40;;;;;;5052328;28;20244;-70
2022/01/23 05:58:53;;;;;;;3.47;3.17;;;22.70;45.10;;;;;;5037170;28;20175;-68
2022/01/23 06:01:22;;;;;;;3.40;3.10;;;22.60;44.40;;;;;;5018764;28;20186;-69
2022/01/23 06:03:52;;;;;;;3.30;3.00;;;22.60;44.30;;;;;;5034369;28;20210;-70
2022/01/23 06:06:25;;;;;;;2.72;2.50;;;22.60;44.40;;;;;;5034253;28;20206;-70
2022/01/23 06:08:51;;;;;;;2.55;2.35;;;22.60;44.40;;;;;;5026786;28;20183;-70
2022/01/23 06:11:17;;;;;;;3.08;2.88;;;22.60;44.40;;;;;;5026063;28;20209;-70
2022/01/23 06:13:44;;;;;;;2.97;2.78;;;22.60;44.40;;;;;;5034256;28;20240;-70
2022/01/23 06:16:12;;;;;;;2.58;2.38;;;22.60;44.40;;;;;;5034386;28;20179;-68
2022/01/23 06:18:41;;;;;;;2.70;2.50;;;22.70;44.50;;;;;;5034275;28;20214;-69
2022/01/23 06:21:26;;;;;;;3.40;3.10;;;22.60;44.40;;;;;;5037476;28;20269;-70
2022/01/23 06:24:04;;;;;;;3.20;3.00;;;22.60;44.40;;;;;;5052537;28;20258;-69
2022/01/23 06:26:56;;;;;;;3.10;2.85;;;22.60;44.40;;;;;;5038041;28;20241;-69
2022/01/23 06:29:25;;;;;;;3.70;3.40;;;22.60;44.40;;;;;;5038305;28;20341;-70
2022/01/23 06:31:57;;;;;;;3.00;2.80;;;22.60;44.30;;;;;;5022256;28;20182;-69
2022/01/23 06:34:27;;;;;;;2.83;2.63;;;22.60;44.40;;;;;;5022132;28;20209;-69
2022/01/23 06:36:54;;;;;;;2.95;2.75;;;22.70;44.50;;;;;;5021792;28;20182;-69
2022/01/23 06:39:23;;;;;;;2.85;2.65;;;22.60;44.40;;;;;;5022057;28;20186;-69
2022/01/23 06:41:54;;;;;;;2.45;2.25;;;22.60;44.40;;;;;;5038237;28;20221;-69
2022/01/23 06:44:40;;;;;;;3.30;3.08;;;22.70;44.40;;;;;;5033585;28;20213;-69
2022/01/23 06:47:11;;;;;;;3.20;2.95;;;22.70;44.40;;;;;;5038280;28;20221;-69
2022/01/23 06:49:36;;;;;;;3.60;3.30;;;22.60;44.30;;;;;;5038007;28;20214;-69
2022/01/23 06:52:03;;;;;;;3.83;3.45;;;22.70;44.40;;;;;;5038010;28;20185;-69
2022/01/23 06:54:29;;;;;;;3.63;3.33;;;22.70;45.00;;;;;;5037649;28;20232;-70
2022/01/23 06:56:56;;;;;;;3.67;3.38;;;22.60;44.40;;;;;;5021710;28;20178;-69
2022/01/23 06:59:23;;;;;;;4.03;3.63;;;22.60;44.40;;;;;;5038015;28;20599;-70
2022/01/23 07:01:57;;;;;;;4.00;3.70;;;22.70;44.40;;;;;;5037729;28;20183;-69
2022/01/23 07:04:39;;;;;;;2.97;2.78;;;22.60;44.30;;;;;;5023016;28;20312;-69
2022/01/23 07:07:28;;;;;;;3.22;2.97;;;22.60;44.40;;;;;;5044466;28;20791;-69
2022/01/23 07:10:18;;;;;;;2.90;2.70;;;22.60;44.40;;;;;;5031376;28;20229;-69
2022/01/23 07:13:03;;;;;;;3.90;3.60;;;22.70;44.40;;;;;;5023590;28;20198;-69
2022/01/23 07:15:51;;;;;;;3.65;3.35;;;22.70;44.40;;;;;;5037338;28;20178;-70
2022/01/23 07:18:35;;;;;;;3.17;2.97;;;22.60;44.40;;;;;;5034218;28;20223;-69
2022/01/23 07:21:11;;;;;;;2.55;2.35;;;22.70;44.50;;;;;;5017599;28;20601;-70
2022/01/23 07:23:39;;;;;;;2.53;2.33;;;22.60;44.40;;;;;;5017559;28;20231;-70
2022/01/23 07:26:07;;;;;;;2.90;2.70;;;22.60;44.30;;;;;;5017157;28;20187;-70
2022/01/23 07:28:40;;;;;;;2.85;2.65;;;22.70;44.40;;;;;;5001619;28;20183;-70
2022/01/23 07:31:08;;;;;;;2.88;2.60;;;22.70;44.40;;;;;;5017283;28;20261;-70
2022/01/23 07:33:36;;;;;;;2.88;2.65;;;22.70;44.40;;;;;;5001318;28;20195;-69
2022/01/23 07:36:04;;;;;;;2.67;2.42;;;22.70;44.40;;;;;;5000610;28;20234;-69
2022/01/23 07:38:30;;;;;;;3.38;3.08;;;22.60;44.30;;;;;;5017547;28;20186;-69
2022/01/23 07:40:57;;;;;;;3.90;3.50;;;22.60;44.30;;;;;;5017386;28;20180;-69
2022/01/23 07:43:37;;;;;;;3.70;3.40;;;22.60;44.30;;;;;;5017537;28;20272;-69
2022/01/23 07:46:21;;;;;;;3.60;3.30;;;22.70;44.40;;;;;;5019635;28;20187;-69
2022/01/23 07:49:06;;;;;;;2.72;2.53;;;22.60;44.30;;;;;;5003318;28;20210;-69
2022/01/23 07:51:50;;;;;;;3.33;3.03;;;22.70;44.40;;;;;;5034757;28;20267;-69
2022/01/23 07:54:22;;;;;;;2.97;2.78;;;22.60;44.30;;;;;;5001026;28;20218;-69
2022/01/23 07:57:14;;;;;;;3.85;3.55;;;22.60;44.30;;;;;;5003910;28;20210;-69
2022/01/23 07:59:51;;;;;;;3.70;3.40;;;22.60;44.30;;;;;;5016635;28;20185;-70
2022/01/23 08:02:37;;;;;;;3.67;3.38;;;22.70;44.40;;;;;;5023104;28;20242;-69
2022/01/23 08:05:26;;;;;;;2.80;2.60;;;22.70;44.40;;;;;;5051170;28;20198;-69
2022/01/23 08:08:21;;;;;;;2.80;2.60;;;22.70;44.40;;;;;;5024093;28;20221;-69
2022/01/23 08:11:16;;;;;;;3.10;2.90;;;22.70;44.40;;;;;;5042431;28;20276;-70
2022/01/23 08:13:41;;;;;;;3.30;3.00;;;22.70;44.40;;;;;;5019914;28;20202;-69
2022/01/23 08:16:07;;;;;;;3.58;3.28;;;22.60;44.40;;;;;;5019810;28;20222;-69
2022/01/23 08:18:33;;;;;;;3.88;3.55;;;22.60;44.30;;;;;;5020062;28;20183;-69
2022/01/23 08:20:59;;;;;;;3.22;2.92;;;22.60;44.30;;;;;;5036243;28;20205;-69
2022/01/23 08:23:24;;;;;;;3.00;2.80;;;22.70;44.40;;;;;;5019565;28;20206;-69
2022/01/23 08:25:50;;;;;;;3.38;3.08;;;22.70;44.40;;;;;;5052619;28;20182;-69
2022/01/23 08:28:16;;;;;;;3.00;2.80;;;22.70;44.50;;;;;;5019575;28;20285;-70
2022/01/23 08:30:42;;;;;;;3.35;3.05;;;22.70;44.40;;;;;;5036322;28;20312;-69
2022/01/23 08:33:08;;;;;;;2.70;2.50;;;22.70;44.40;;;;;;5036303;28;20308;-69
2022/01/23 08:35:34;;;;;;;2.97;2.75;;;22.60;44.40;;;;;;5019287;28;20203;-70
2022/01/23 08:37:59;;;;;;;2.83;2.63;;;22.70;44.40;;;;;;5035902;28;20213;-70
2022/01/23 08:43:16;;;;;;;2.50;2.20;;;22.60;44.40;;;;;;5032797;28;20203;-69
2022/01/23 08:45:42;;;;;;;2.40;2.20;;;22.60;44.40;;;;;;5053298;28;20210;-69
2022/01/23 08:48:09;;;;;;;2.58;2.38;;;22.70;44.40;;;;;;5052840;28;20202;-69
2022/01/23 08:50:35;;;;;;;2.60;2.40;;;22.70;44.40;;;;;;5035544;28;20222;-69
2022/01/23 08:53:02;;;;;;;2.20;2.10;;;22.70;44.40;;;;;;5035784;28;20202;-69
2022/01/23 08:55:28;;;;;;;3.08;2.10;;;22.70;44.40;;;;;;5053224;28;20186;-70
2022/01/23 08:57:54;;;;;;;2.55;2.35;;;22.70;44.40;;;;;;5020894;28;20186;-70
2022/01/23 09:00:21;;;;;;;2.58;2.38;;;22.70;44.40;;;;;;5055442;28;20190;-69
2022/01/23 09:02:47;;;;;;;2.97;2.78;;;22.60;44.30;;;;;;5073156;28;20680;-67
2022/01/23 09:05:13;;;;;;;2.67;2.47;;;22.70;44.40;;;;;;5055447;28;20182;-70
2022/01/23 09:07:38;;;;;;;2.72;2.53;;;22.70;44.40;;;;;;5038580;28;20193;-69
2022/01/23 09:10:05;;;;;;;3.03;2.83;;;22.70;44.40;;;;;;5055494;28;20209;-70
2022/01/23 09:12:44;;;;;;;2.60;2.40;;;22.70;44.40;;;;;;5073061;28;20174;-70
2022/01/23 09:15:10;;;;;;;2.50;2.30;;;22.70;44.40;;;;;;5055139;28;20211;-70
2022/01/23 09:17:36;;;;;;;2.67;2.47;;;22.70;44.40;;;;;;5055002;28;20244;-69
2022/01/23 09:20:03;;;;;;;2.63;2.42;;;22.70;44.40;;;;;;5055154;28;20622;-69
2022/01/23 09:22:31;;;;;;;2.10;2.00;;;22.70;44.40;;;;;;5038871;28;20198;-69
2022/01/23 09:25:00;;;;;;;2.00;1.90;;;22.70;44.40;;;;;;5035090;28;20210;-69
2022/01/23 09:27:28;;;;;;;2.10;2.00;;;22.70;44.40;;;;;;5035361;28;20186;-69
2022/01/23 09:29:55;;;;;;;1.95;1.85;;;22.70;44.40;;;;;;5035045;28;20233;-69
2022/01/23 09:32:23;;;;;;;2.05;1.95;;;22.70;44.40;;;;;;5034968;28;20179;-69
2022/01/23 09:34:51;;;;;;;2.05;1.95;;;22.70;44.40;;;;;;5018566;28;20206;-69
2022/01/23 09:37:19;;;;;;;2.10;2.00;;;22.70;44.40;;;;;;5023589;28;20215;-70
2022/01/23 09:39:51;;;;;;;2.10;2.00;;;22.70;44.30;;;;;;5032793;28;20194;-70
2022/01/23 09:42:20;;;;;;;2.40;2.20;;;22.70;44.30;;;;;;5026569;28;20183;-70
2022/01/23 09:44:57;;;;;;;2.55;2.35;;;22.70;44.30;;;;;;5034731;28;20202;-70
2022/01/23 09:47:23;;;;;;;2.35;2.22;;;22.70;44.30;;;;;;5048325;28;20199;-69
2022/01/23 09:49:52;;;;;;;2.95;2.75;;;22.70;44.30;;;;;;5030323;28;20218;-70
2022/01/23 09:52:20;;;;;;;3.25;2.60;;;22.70;44.30;;;;;;5049013;28;20195;-70
2022/01/23 09:54:57;;;;;;;2.70;2.50;;;22.70;44.30;;;;;;5021877;28;20294;-69
2022/01/23 09:57:28;;;;;;;2.70;2.50;;;22.70;44.30;;;;;;5014850;28;20229;-70
2022/01/23 09:59:55;;;;;;;2.10;1.90;;;22.70;44.30;;;;;;5024121;28;20190;-70
2022/01/23 10:02:23;;;;;;;2.20;2.10;;;22.70;44.30;;;;;;5032527;28;20183;-69
2022/01/23 10:04:54;;;;;;;2.38;2.25;;;22.70;44.30;;;;;;5022428;28;20723;-70
2022/01/23 10:07:21;;;;;;;2.10;2.00;;;22.70;44.30;;;;;;5051839;28;20177;-69
2022/01/23 10:09:53;;;;;;;2.22;2.03;;;22.70;44.20;;;;;;5054367;28;20198;-70
2022/01/23 10:12:20;;;;;;;2.00;1.90;;;22.80;44.30;;;;;;5040819;28;20198;-70
2022/01/23 10:14:47;;;;;;;1.80;1.70;;;22.70;44.20;;;;;;5017991;28;20244;-70
2022/01/23 10:17:12;;;;;;;2.60;1.90;;;22.80;44.30;;;;;;5018113;28;20193;-70
2022/01/23 10:19:39;;;;;;;1.85;1.75;;;22.70;44.20;;;;;;5017829;28;20194;-70
2022/01/23 10:22:06;;;;;;;2.00;1.90;;;22.80;44.20;;;;;;5034277;28;20198;-69
2022/01/23 10:24:32;;;;;;;1.80;1.70;;;22.80;44.30;;;;;;5033737;28;20202;-70
2022/01/23 10:27:00;;;;;;;1.60;1.50;;;22.80;44.20;;;;;;5042355;28;20210;-70
2022/01/23 10:29:34;;;;;;;1.83;1.73;;;22.80;44.20;;;;;;5034213;28;20200;-70
2022/01/23 10:32:07;;;;;;;1.77;1.67;;;22.70;44.20;;;;;;5034362;28;20220;-70
2022/01/23 10:34:48;;;;;;;1.60;1.50;;;22.70;44.20;;;;;;5017814;28;20206;-70
2022/01/23 10:37:37;;;;;;;1.98;1.88;;;22.80;44.50;;;;;;5034242;28;20240;-70
2022/01/23 10:40:20;;;;;;;1.70;1.60;;;22.70;44.10;;;;;;5017937;28;20182;-70
2022/01/23 10:43:07;;;;;;;1.77;1.67;;;22.80;44.30;;;;;;5034096;28;20183;-69
2022/01/23 10:48:41;;;;;;;1.77;1.67;;;22.70;44.00;;;;;;5034448;28;20179;-70
2022/01/23 10:51:39;;;;;;;1.55;1.45;;;22.80;44.20;;;;;;5017547;28;20218;-70
2022/01/23 10:54:07;;;;;;;1.48;1.38;;;22.70;44.20;;;;;;5033949;28;20210;-71
2022/01/23 10:56:57;;;;;;;1.95;1.52;;;22.70;44.00;;;;;;5017375;28;20188;-70
2022/01/23 10:59:24;;;;;;;1.60;1.50;;;22.80;44.00;;;;;;5030623;28;20194;-70
2022/01/23 11:02:12;;;;;;;1.70;1.60;;;22.80;43.90;;;;;;5016058;28;20653;-69
2022/01/23 11:05:04;;;;;;;1.77;1.50;;;22.80;43.90;;;;;;5015302;28;20221;-70
2022/01/23 11:07:32;;;;;;;1.67;1.50;;;22.70;43.90;;;;;;5033782;28;20240;-69
2022/01/23 11:10:21;;;;;;;1.42;1.33;;;22.80;43.90;;;;;;5032709;28;20244;-69
2022/01/23 11:18:04;;;;;;;1.50;1.40;;;22.80;43.90;;;;;;5074614;28;20208;-69
2022/01/23 11:21:14;;;;;;;1.70;1.60;;;22.80;43.90;;;;;;5056530;28;20271;-70
2022/01/23 11:23:40;;;;;;;2.35;1.60;;;22.80;43.90;;;;;;5018839;28;20224;-69
2022/01/23 11:26:11;;;;;;;1.15;1.08;;;22.80;43.90;;;;;;5039599;28;20178;-70
2022/01/23 11:28:44;;;;;;;1.45;1.35;;;22.80;43.90;;;;;;5056156;28;20640;-69
2022/01/23 11:31:17;;;;;;;1.50;1.40;;;22.80;43.90;;;;;;5039445;28;20213;-69
2022/01/23 11:33:45;;;;;;;1.77;1.20;;;22.80;43.90;;;;;;5056134;28;20236;-69
2022/01/23 11:36:12;;;;;;;1.77;1.40;;;22.70;43.80;;;;;;5064472;28;20236;-70
2022/01/23 11:38:39;;;;;;;1.98;1.30;;;22.80;43.90;;;;;;5048934;28;20208;-70
2022/01/23 11:57:44;;;;;;;1.70;1.60;;;22.80;43.90;;;;;;5010209;28;20216;-69
2022/01/23 12:00:25;;;;;;;1.20;1.20;;;22.80;43.90;;;;;;4995433;28;20222;-69
2022/01/23 12:03:19;;;;;;;1.40;1.33;;;22.80;43.90;;;;;;4995520;28;20195;-69
2022/01/23 12:06:11;;;;;;;1.50;1.40;;;22.80;43.90;;;;;;4995292;28;20207;-69
2022/01/23 12:08:37;;;;;;;1.30;1.20;;;22.80;43.90;;;;;;4995101;28;20286;-69
2022/01/23 12:16:20;;;;;;;1.40;1.30;;;22.80;43.90;;;;;;4995495;28;20227;-69
2022/01/23 12:16:52;;;;;;;1.33;1.23;;;22.80;43.90;;;;;;5011129;28;20198;-69
2022/01/23 12:19:24;;;;;;;1.45;1.30;;;22.80;43.90;;;;;;5013111;28;20282;-69
2022/01/23 12:21:53;;;;;;;1.50;1.40;;;22.80;43.90;;;;;;4996212;28;20232;-69
2022/01/23 12:24:22;;;;;;;1.50;1.40;;;22.80;43.90;;;;;;4995128;28;20188;-70
2022/01/23 12:26:50;;;;;;;2.10;1.50;;;22.80;43.90;;;;;;4980075;28;20196;-69
2022/01/23 12:29:23;;;;;;;1.88;1.40;;;22.80;43.90;;;;;;4996173;28;20195;-69
2022/01/23 12:32:10;;;;;;;1.25;1.20;;;22.80;43.90;;;;;;4996262;28;20705;-69
2022/01/23 12:34:52;;;;;;;1.33;1.23;;;22.80;43.90;;;;;;5013140;28;20212;-69
2022/01/23 12:37:18;;;;;;;1.30;1.30;;;22.80;43.90;;;;;;4995900;28;20180;-69
2022/01/23 12:39:46;;;;;;;1.30;1.20;;;22.80;43.80;;;;;;4995957;28;20202;-70
2022/01/23 12:42:12;;;;;;;1.17;1.17;;;22.80;43.90;;;;;;4995851;28;20196;-71
2022/01/23 12:44:40;;;;;;;1.63;1.52;;;22.80;43.90;;;;;;4979345;28;20705;-69
2022/01/23 12:47:18;;;;;;;1.35;1.25;;;22.80;43.90;;;;;;4995681;28;20192;-69
2022/01/23 12:49:52;;;;;;;1.55;1.45;;;22.80;43.90;;;;;;4994440;28;20213;-70
2022/01/23 12:52:23;;;;;;;1.20;1.10;;;22.80;43.90;;;;;;4992358;28;20189;-70
2022/01/23 12:54:51;;;;;;;1.90;1.30;;;22.80;43.90;;;;;;4975906;28;20213;-71
2022/01/23 12:57:47;;;;;;;2.58;1.25;;;22.80;43.90;;;;;;4976070;28;20197;-69
2022/01/23 13:00:24;;;;;;;1.08;1.08;;;22.80;43.90;;;;;;4976293;28;20180;-71
2022/01/23 13:02:52;;;;;;;1.30;1.20;;;22.80;43.90;;;;;;4992334;28;20196;-69
2022/01/23 13:05:19;;;;;;;1.20;1.10;;;22.80;43.90;;;;;;4991863;28;20205;-69
2022/01/23 13:08:05;;;;;;;1.38;1.27;;;22.80;43.90;;;;;;4993333;28;20246;-71
2022/01/23 13:13:23;;;;;;;1.40;1.30;;;22.80;43.80;;;;;;4975759;28;20196;-70
2022/01/23 13:16:18;;;;;;;1.38;1.30;;;22.80;43.80;;;;;;5001681;28;20216;-69
2022/01/23 13:27:28;;;;;;;1.70;1.35;;;22.80;43.70;;;;;;4970015;28;20196;-69
2022/01/23 13:35:04;;;;;;;1.15;1.00;;;22.80;43.70;;;;;;5012144;28;20291;-69
2022/01/23 13:37:36;;;;;;;1.30;1.20;;;22.80;43.80;;;;;;4995299;28;20197;-69
2022/01/23 13:40:14;;;;;;;1.35;1.10;;;22.80;43.80;;;;;;4997755;28;20195;-69
2022/01/23 13:59:56;;;;;;;1.83;1.73;;;22.80;43.60;;;;;;5014191;28;20207;-69
2022/01/23 14:02:43;;;;;;;1.80;1.55;;;22.80;43.70;;;;;;4997996;28;20194;-71
2022/01/23 14:05:19;;;;;;;1.27;1.17;;;22.80;43.80;;;;;;5013877;28;20215;-69
2022/01/23 14:07:53;;;;;;;1.52;1.30;;;22.80;43.80;;;;;;4997780;28;20194;-69
2022/01/23 14:10:36;;;;;;;2.08;1.40;;;22.80;43.80;;;;;;4997951;28;20215;-69
2022/01/23 14:13:08;;;;;;;1.70;1.30;;;22.80;43.70;;;;;;5014259;28;20650;-69
2022/01/23 14:15:42;;;;;;;1.25;1.13;;;22.80;43.70;;;;;;4994119;28;20239;-69
2022/01/23 14:18:11;;;;;;;1.88;1.40;;;22.80;43.70;;;;;;5010828;28;20287;-69
2022/01/23 14:20:53;;;;;;;2.33;1.48;;;22.80;43.70;;;;;;5010606;28;20196;-69
2022/01/23 14:23:20;;;;;;;2.40;1.90;;;22.80;43.60;;;;;;5010815;28;20191;-71
2022/01/23 14:25:51;;;;;;;1.73;1.60;;;22.80;43.60;;;;;;4993881;28;20222;-68
2022/01/23 14:28:24;;;;;;;1.70;1.60;;;22.80;43.60;;;;;;5010863;28;20575;-69
2022/01/23 14:30:54;;;;;;;2.05;1.30;;;22.80;43.60;;;;;;4994048;28;20691;-69
2022/01/23 14:33:33;;;;;;;1.30;1.20;;;22.70;43.60;;;;;;4986749;28;20651;-69
2022/01/23 14:36:15;;;;;;;2.70;1.40;;;22.80;43.80;;;;;;5010292;28;20223;-70
2022/01/23 14:39:01;;;;;;;1.70;1.60;;;22.80;43.80;;;;;;4975310;28;20227;-68
2022/01/23 14:41:31;;;;;;;1.92;1.60;;;22.70;43.70;;;;;;4992016;28;20189;-69
2022/01/23 14:43:58;;;;;;;2.10;1.58;;;22.80;43.70;;;;;;4958708;28;20216;-69
2022/01/23 14:46:23;;;;;;;2.78;2.28;;;22.70;43.60;;;;;;4988669;28;20208;-69
2022/01/23 14:48:51;;;;;;;1.73;1.63;;;22.80;43.70;;;;;;4992839;28;20181;-69
2022/01/23 14:51:23;;;;;;;1.70;1.60;;;22.80;43.70;;;;;;4978484;28;20220;-69
2022/01/23 14:53:51;;;;;;;1.60;1.50;;;22.80;43.80;;;;;;4994705;28;20191;-69
2022/01/23 14:56:19;;;;;;;2.55;2.10;;;22.80;43.80;;;;;;4994323;28;20232;-71
2022/01/23 14:58:47;;;;;;;1.73;1.63;;;22.70;43.70;;;;;;4994692;28;20193;-70
2022/01/23 15:01:16;;;;;;;2.13;1.48;;;22.80;43.80;;;;;;4978297;28;20227;-69
2022/01/23 15:03:48;;;;;;;1.42;1.33;;;22.70;43.80;;;;;;4995868;28;20185;-69
2022/01/23 15:06:16;;;;;;;1.83;1.55;;;22.70;43.80;;;;;;4978235;28;20219;-69
2022/01/23 15:08:46;;;;;;;1.58;1.48;;;22.70;43.80;;;;;;4994536;28;20263;-69
2022/01/23 15:11:12;;;;;;;2.10;1.70;;;22.70;43.80;;;;;;4994207;28;20217;-70
2022/01/23 15:13:38;;;;;;;2.53;1.70;;;22.70;43.70;;;;;;4994545;28;20185;-69
2022/01/23 15:16:04;;;;;;;2.83;1.70;;;22.70;43.60;;;;;;5019674;28;20216;-69
2022/01/23 15:18:31;;;;;;;1.75;1.65;;;22.80;43.80;;;;;;4995950;28;20191;-69
2022/01/23 15:20:57;;;;;;;1.98;1.48;;;22.70;43.80;;;;;;4980984;28;20315;-69
2022/01/23 15:23:23;;;;;;;2.58;1.63;;;22.70;43.70;;;;;;4981295;28;20198;-69
2022/01/23 15:25:49;;;;;;;3.45;2.00;;;22.70;43.80;;;;;;4997261;28;20290;-69
2022/01/23 15:28:15;;;;;;;2.45;2.25;;;22.70;43.80;;;;;;4980955;28;20294;-69
2022/01/23 15:30:41;;;;;;;3.08;2.67;;;22.70;43.80;;;;;;4997282;28;20235;-69
2022/01/23 15:33:08;;;;;;;2.53;2.17;;;22.70;43.80;;;;;;4980953;28;20180;-69
2022/01/23 15:35:44;;;;;;;3.13;2.15;;;22.70;43.80;;;;;;4980567;28;20235;-69
2022/01/23 15:38:10;;;;;;;2.80;2.00;;;22.70;43.80;;;;;;5009197;28;20183;-69
2022/01/23 15:40:36;;;;;;;2.85;2.15;;;22.70;43.80;;;;;;4997123;28;20196;-69
2022/01/23 15:43:02;;;;;;;2.30;2.10;;;22.70;43.80;;;;;;5013490;28;20198;-69
2022/01/23 15:45:28;;;;;;;2.45;1.98;;;22.70;43.80;;;;;;5013246;28;20239;-70
2022/01/23 15:47:54;;;;;;;2.70;1.88;;;22.70;43.80;;;;;;5013205;28;20188;-68
2022/01/23 15:50:20;;;;;;;2.97;1.95;;;22.70;43.80;;;;;;5013154;28;20223;-69
2022/01/23 15:52:47;;;;;;;2.35;2.15;;;22.70;43.80;;;;;;5013363;28;20192;-70
2022/01/23 15:55:15;;;;;;;2.17;1.98;;;22.70;43.80;;;;;;5013104;28;20239;-69
2022/01/23 15:57:42;;;;;;;3.05;2.28;;;22.70;43.80;;;;;;4996947;28;20275;-69
2022/01/23 16:00:11;;;;;;;4.13;2.05;;;22.70;43.80;;;;;;5013086;28;20238;-69
2022/01/23 16:02:40;;;;;;;3.22;2.00;;;22.60;43.70;;;;;;5014446;28;20207;-69
2022/01/23 16:05:07;;;;;;;2.53;1.85;;;22.70;43.80;;;;;;5014106;28;20203;-69
2022/01/23 16:07:33;;;;;;;2.30;2.08;;;22.60;43.70;;;;;;5004371;28;20211;-69
2022/01/23 16:09:59;;;;;;;2.75;2.35;;;22.60;43.70;;;;;;4996354;28;20258;-68
2022/01/23 16:12:25;;;;;;;4.35;2.70;;;22.60;43.70;;;;;;4996443;28;20659;-68
2022/01/23 16:14:50;;;;;;;3.67;2.38;;;22.60;43.70;;;;;;4995885;28;20211;-68
2022/01/23 16:17:16;;;;;;;3.05;2.85;;;22.60;43.70;;;;;;4980214;28;20192;-68
2022/01/23 16:19:42;;;;;;;3.33;2.90;;;22.60;43.70;;;;;;4996464;28;20235;-68
2022/01/23 16:22:08;;;;;;;3.92;2.65;;;22.60;43.70;;;;;;4996220;28;20190;-69
2022/01/23 16:24:33;;;;;;;5.20;2.85;;;22.60;43.70;;;;;;4996054;28;20191;-69
2022/01/23 16:27:00;;;;;;;3.30;2.97;;;22.60;43.70;;;;;;4979944;28;20188;-69
2022/01/23 16:29:27;;;;;;;2.80;2.58;;;22.60;43.70;;;;;;5012507;28;20184;-69
2022/01/23 16:31:59;;;;;;;3.50;2.50;;;22.60;43.70;;;;;;4995938;28;20216;-69
2022/01/23 16:34:28;;;;;;;2.85;2.50;;;22.60;43.70;;;;;;4996114;28;20187;-68
2022/01/23 16:36:56;;;;;;;3.97;2.72;;;22.60;43.70;;;;;;4996181;28;20710;-70
2022/01/23 16:39:23;;;;;;;3.35;2.67;;;22.60;43.70;;;;;;5012495;28;20195;-70
2022/01/23 16:41:49;;;;;;;2.20;2.00;;;22.60;44.30;;;;;;4995901;28;20220;-68
2022/01/23 16:44:15;;;;;;;3.72;2.80;;;22.60;43.70;;;;;;4986362;28;20188;-69
2022/01/23 16:46:41;;;;;;;3.58;2.55;;;22.60;43.70;;;;;;4979652;28;20224;-68